Time;durP1;ratioP1;P1;durP2;ratioP2;P2;SDS_P1;SDS_P2;PMS_P1;PMS_P2;Temp;Humidity;BMP_temperature;BMP_pressure;BME280_temperature;BME280_humidity;BME280_pressure;Samples;Min_cycle;Max_cycle;Signal;HPM_P1;HPM_P2
2023/07/21 00:01:08;;;;;;;1.98;1.27;;;17.30;89.40;;;17.20;59.40;96813.97;5027518;28;20064;-35
2023/07/21 00:03:34;;;;;;;1.92;1.33;;;17.30;88.40;;;17.12;60.26;96785.25;5032944;28;20029;-35
2023/07/21 00:06:06;;;;;;;3.03;1.50;;;17.30;89.00;;;17.20;61.34;96797.16;5032303;28;20155;-37
2023/07/21 00:08:35;;;;;;;3.47;1.70;;;17.30;89.80;;;17.18;61.96;96798.09;5031933;28;20043;-35
2023/07/21 00:11:01;;;;;;;3.05;1.52;;;17.20;90.00;;;17.16;62.85;96792.03;5029334;28;20429;-35
2023/07/21 00:13:28;;;;;;;1.98;1.40;;;17.20;90.30;;;17.16;63.49;96792.03;5027024;28;20037;-35
2023/07/21 00:15:55;;;;;;;2.35;1.52;;;17.20;90.40;;;17.17;65.20;96787.56;5028176;28;20036;-35
2023/07/21 00:18:22;;;;;;;2.45;1.40;;;17.30;90.90;;;17.11;66.39;96777.34;5027920;28;20114;-35
2023/07/21 00:20:47;;;;;;;2.78;1.52;;;17.30;91.20;;;17.17;68.21;96784.88;5022555;28;20915;-35
2023/07/21 00:23:14;;;;;;;1.60;1.40;;;17.30;91.70;;;17.16;69.51;96791.19;5030860;28;20067;-35
2023/07/21 00:25:40;;;;;;;2.08;1.58;;;17.20;92.00;;;17.09;70.41;96785.47;5025700;28;20029;-35
2023/07/21 00:28:06;;;;;;;2.20;1.50;;;17.20;92.10;;;17.13;69.08;96792.25;5027013;28;20110;-35
2023/07/21 00:30:33;;;;;;;3.13;1.80;;;17.20;91.80;;;17.15;68.14;96786.81;5026978;28;20071;-35
2023/07/21 00:32:59;;;;;;;2.15;1.60;;;17.30;91.70;;;17.16;68.21;96785.88;5029945;28;20397;-35
2023/07/21 00:35:24;;;;;;;1.95;1.52;;;17.30;91.70;;;17.18;68.14;96784.78;5030756;28;20071;-35
2023/07/21 00:37:51;;;;;;;3.00;1.50;;;17.30;91.70;;;17.22;68.31;96788.06;5028893;28;20033;-35
2023/07/21 00:40:19;;;;;;;5.13;1.90;;;17.30;91.70;;;17.23;68.95;96787.13;5027500;28;20035;-35
2023/07/21 00:42:45;;;;;;;1.70;1.40;;;17.40;92.00;;;17.20;69.32;96784.66;5027870;28;20036;-35
2023/07/21 00:45:14;;;;;;;2.65;1.55;;;17.30;92.00;;;17.18;70.18;96775.94;5030858;28;20487;-35
2023/07/21 00:47:41;;;;;;;2.38;1.55;;;17.30;92.20;;;17.23;70.79;96783.59;5024673;28;20384;-35
2023/07/21 00:50:08;;;;;;;3.47;2.00;;;17.30;92.40;;;17.12;69.49;96777.25;5022189;28;20921;-35
2023/07/21 00:52:36;;;;;;;1.88;1.33;;;17.30;92.10;;;17.21;67.95;96783.72;5027963;28;20187;-35
2023/07/21 00:55:03;;;;;;;2.72;1.70;;;17.30;91.80;;;17.18;68.05;96776.78;5027246;28;20056;-35
2023/07/21 00:57:29;;;;;;;3.25;1.83;;;17.30;91.80;;;17.21;69.29;96785.50;5027057;28;20275;-35
2023/07/21 00:59:54;;;;;;;2.45;1.63;;;17.30;92.10;;;17.21;69.18;96781.06;5028582;28;20489;-35
2023/07/21 01:02:21;;;;;;;2.15;1.45;;;17.30;92.10;;;17.21;69.90;96781.06;5022006;28;20029;-35
2023/07/21 01:04:47;;;;;;;1.80;1.27;;;17.30;92.30;;;17.17;70.72;96776.91;5027593;28;20082;-35
2023/07/21 01:07:13;;;;;;;2.50;1.55;;;17.30;92.50;;;17.06;71.15;96755.53;5045542;28;20033;-35
2023/07/21 01:09:40;;;;;;;2.28;1.52;;;17.30;92.60;;;17.14;72.45;96771.81;5029478;28;20485;-36
2023/07/21 01:12:07;;;;;;;2.65;1.63;;;17.30;93.00;;;17.08;72.33;96765.09;5029172;28;20084;-35
2023/07/21 01:14:37;;;;;;;3.30;1.52;;;17.20;92.90;;;17.05;72.77;96769.78;5033034;28;20025;-35
2023/07/21 01:17:06;;;;;;;2.38;1.50;;;17.20;93.00;;;17.01;72.68;96776.31;5027600;28;20086;-35
2023/07/21 01:19:32;;;;;;;1.60;1.40;;;17.10;93.00;;;16.91;73.99;96755.69;5031322;28;20044;-35
2023/07/21 01:22:23;;;;;;;2.00;1.70;;;17.10;93.40;;;16.93;73.09;96764.41;5027782;28;20036;-35
2023/07/21 01:24:52;;;;;;;2.25;1.60;;;17.00;93.20;;;16.90;72.40;96755.78;5029021;28;20103;-36
2023/07/21 01:27:21;;;;;;;2.58;1.27;;;17.00;93.00;;;16.87;73.11;96758.66;5030629;28;20162;-37
2023/07/21 01:29:48;;;;;;;1.90;1.30;;;17.00;93.20;;;16.85;73.63;96752.63;5031538;28;20458;-35
2023/07/21 01:32:18;;;;;;;2.50;1.15;;;16.90;93.30;;;16.80;72.08;96751.09;5048494;28;20056;-35
2023/07/21 01:34:45;;;;;;;4.10;1.40;;;16.90;93.00;;;16.83;70.85;96751.84;5026444;28;20757;-35
2023/07/21 01:37:13;;;;;;;1.77;1.20;;;16.90;92.80;;;16.81;70.07;96741.31;5046817;28;20062;-35
2023/07/21 01:39:40;;;;;;;1.50;1.00;;;16.90;92.60;;;16.80;69.46;96745.78;5028255;28;20037;-36
2023/07/21 01:42:06;;;;;;;1.48;1.05;;;16.90;92.50;;;16.82;69.76;96745.69;5025181;28;20066;-35
2023/07/21 01:44:33;;;;;;;1.65;1.20;;;16.90;92.50;;;16.82;69.89;96747.50;5024390;28;20041;-35
2023/07/21 01:46:59;;;;;;;2.55;1.17;;;16.90;92.60;;;16.80;69.25;96744.94;5026533;28;21022;-35
2023/07/21 01:49:25;;;;;;;1.92;1.33;;;16.90;92.40;;;16.80;67.94;96739.63;5028739;28;20516;-35
2023/07/21 01:51:57;;;;;;;1.05;0.95;;;16.90;92.10;;;16.82;66.12;96740.34;5024369;28;20170;-35
2023/07/21 01:54:46;;;;;;;2.25;1.02;;;16.90;91.70;;;16.83;65.03;96736.75;5025373;28;20025;-35
2023/07/21 01:57:22;;;;;;;1.83;1.30;;;16.90;91.50;;;16.87;64.98;96737.38;5031400;28;20030;-35
2023/07/21 01:59:49;;;;;;;1.60;1.10;;;16.90;91.40;;;16.90;64.46;96731.81;5017546;28;20111;-35
2023/07/21 02:02:17;;;;;;;2.42;1.33;;;17.00;91.30;;;16.89;63.24;96717.66;5042536;28;20079;-35
2023/07/21 02:04:50;;;;;;;4.00;1.50;;;17.00;91.00;;;16.95;64.80;96727.84;5035905;28;20029;-35
2023/07/21 02:07:16;;;;;;;1.27;1.15;;;17.00;91.50;;;16.96;66.34;96736.72;5030360;28;20280;-35
2023/07/21 02:09:43;;;;;;;2.17;1.20;;;17.10;91.90;;;17.00;65.55;96732.03;5028278;28;20099;-36
2023/07/21 02:12:11;;;;;;;1.67;1.15;;;17.10;91.60;;;17.00;66.46;96724.03;5029200;28;20508;-36
2023/07/21 02:14:37;;;;;;;2.10;1.13;;;17.10;91.90;;;17.03;65.82;96729.09;5029694;28;20078;-35
2023/07/21 02:17:02;;;;;;;1.60;1.20;;;17.10;91.70;;;16.97;66.58;96715.28;5027616;28;20128;-35
2023/07/21 02:19:28;;;;;;;2.90;1.20;;;17.20;92.00;;;17.04;68.06;96721.00;5026834;28;20082;-35
2023/07/21 02:21:54;;;;;;;2.67;1.45;;;17.10;92.30;;;17.05;68.68;96721.84;5028444;28;20029;-36
2023/07/21 02:24:20;;;;;;;1.80;1.48;;;17.20;92.40;;;17.03;67.52;96718.44;5029127;28;20339;-35
2023/07/21 02:26:45;;;;;;;1.63;1.10;;;17.20;92.10;;;16.97;68.15;96720.59;5026795;28;20504;-35
2023/07/21 02:29:11;;;;;;;2.97;1.10;;;17.10;92.30;;;16.95;68.92;96716.38;5027328;28;20079;-35
2023/07/21 02:31:37;;;;;;;1.95;1.48;;;17.00;92.50;;;16.90;68.33;96721.19;5024041;28;20412;-35
2023/07/21 02:34:05;;;;;;;2.35;1.20;;;17.00;92.40;;;16.87;68.39;96730.25;5025668;28;20465;-35
2023/07/21 02:36:31;;;;;;;2.47;1.38;;;17.00;92.40;;;16.87;69.05;96719.59;5027719;28;21445;-35
2023/07/21 02:38:56;;;;;;;1.70;1.15;;;17.00;92.60;;;16.88;68.19;96717.78;5025882;28;20025;-35
2023/07/21 02:41:22;;;;;;;1.50;1.05;;;17.00;92.40;;;16.86;66.54;96712.56;5027239;28;20035;-35
2023/07/21 02:43:48;;;;;;;1.52;1.25;;;17.00;92.00;;;16.97;64.69;96728.59;5009513;28;20220;-35
2023/07/21 02:46:14;;;;;;;1.40;1.10;;;17.10;91.50;;;17.02;64.87;96724.75;5024482;28;20032;-35
2023/07/21 02:48:40;;;;;;;2.03;1.10;;;17.10;91.60;;;17.03;69.42;96724.66;5027218;28;20050;-35
2023/07/21 02:51:06;;;;;;;3.25;1.15;;;17.20;92.70;;;17.02;71.32;96716.78;5024895;28;20032;-35
2023/07/21 02:53:32;;;;;;;1.65;1.48;;;17.20;93.20;;;17.00;71.12;96716.03;5025683;28;20507;-35
2023/07/21 02:56:00;;;;;;;2.22;1.20;;;17.10;93.10;;;16.96;71.93;96700.28;5024873;28;20215;-35
2023/07/21 02:58:27;;;;;;;2.90;1.67;;;17.10;93.30;;;16.93;74.07;96702.31;5022555;28;20128;-35
2023/07/21 03:00:56;;;;;;;3.00;1.45;;;17.00;93.80;;;16.78;75.95;96689.13;5029155;28;20065;-35
2023/07/21 03:03:25;;;;;;;2.25;1.42;;;17.00;94.30;;;16.80;74.76;96697.00;5030914;28;20041;-35
2023/07/21 03:05:51;;;;;;;1.52;1.13;;;17.00;94.00;;;16.80;74.87;96700.53;5028321;28;20049;-35
2023/07/21 03:08:26;;;;;;;1.77;1.30;;;16.90;94.00;;;16.72;76.19;96702.88;5025285;28;20439;-36
2023/07/21 03:11:01;;;;;;;2.05;1.35;;;16.80;94.30;;;16.61;75.52;96703.66;5025617;28;20021;-35
2023/07/21 03:13:26;;;;;;;1.75;1.02;;;16.70;94.20;;;16.50;73.21;96705.41;5026661;28;20094;-35
2023/07/21 03:15:52;;;;;;;1.60;1.20;;;16.60;93.70;;;16.38;73.32;96708.00;5027688;28;20029;-35
2023/07/21 03:18:18;;;;;;;2.20;1.45;;;16.50;93.70;;;16.29;72.53;96711.28;5030393;28;20102;-35
2023/07/21 03:20:44;;;;;;;2.78;1.20;;;16.40;93.50;;;16.28;72.62;96708.75;5029865;28;20111;-35
2023/07/21 03:23:11;;;;;;;1.67;1.30;;;16.40;93.60;;;16.25;73.82;96695.66;5025220;28;20366;-35
2023/07/21 03:25:43;;;;;;;2.05;1.48;;;16.40;93.90;;;16.20;76.34;96699.53;5031171;28;20037;-35
2023/07/21 03:28:09;;;;;;;4.17;1.23;;;16.30;94.50;;;16.17;78.40;96699.72;5024044;28;20053;-35
2023/07/21 03:30:34;;;;;;;3.08;1.50;;;16.30;95.00;;;16.14;80.75;96697.28;5030068;28;20300;-35
2023/07/21 03:33:00;;;;;;;3.80;1.77;;;16.20;95.50;;;16.10;81.67;96701.13;5029940;28;22126;-35
2023/07/21 03:35:26;;;;;;;2.42;1.50;;;16.20;95.70;;;16.09;82.29;96711.84;5028052;28;20040;-35
2023/07/21 03:37:52;;;;;;;1.90;1.30;;;16.20;95.80;;;16.09;83.29;96706.53;5023858;28;20041;-35
2023/07/21 03:40:17;;;;;;;1.85;1.42;;;16.20;96.10;;;16.09;81.79;96709.19;5026056;28;20068;-35
2023/07/21 03:42:43;;;;;;;3.05;1.48;;;16.20;95.80;;;16.09;81.59;96699.41;5029080;28;20037;-35
2023/07/21 03:45:09;;;;;;;2.72;1.45;;;16.30;95.80;;;16.09;82.45;96706.53;5028726;28;20083;-35
2023/07/21 03:47:35;;;;;;;2.75;1.50;;;16.30;96.00;;;16.08;84.81;96705.69;5030039;28;20036;-35
2023/07/21 03:50:02;;;;;;;1.75;1.20;;;16.20;96.40;;;16.08;86.46;96702.16;5025781;28;20037;-35
2023/07/21 03:52:28;;;;;;;1.80;1.35;;;16.20;96.90;;;16.08;86.33;96697.72;5028333;28;20033;-35
2023/07/21 03:54:55;;;;;;;2.78;1.52;;;16.20;96.80;;;16.10;87.44;96697.63;5028304;28;20027;-35
2023/07/21 03:57:21;;;;;;;2.33;1.40;;;16.20;97.10;;;16.12;88.55;96691.22;5030737;28;20505;-35
2023/07/21 03:59:48;;;;;;;2.40;1.48;;;16.30;97.40;;;16.17;89.65;96693.56;5028653;28;20485;-35
2023/07/21 04:02:16;;;;;;;2.30;1.33;;;16.30;97.60;;;16.19;88.97;96688.97;5028650;28;20051;-35
2023/07/21 04:04:42;;;;;;;1.85;1.35;;;16.30;97.50;;;16.23;87.64;96691.28;5032049;28;20059;-35
2023/07/21 04:07:08;;;;;;;2.92;1.42;;;16.40;97.30;;;16.28;86.91;96690.13;5030784;28;20500;-35
2023/07/21 04:09:34;;;;;;;1.70;1.30;;;16.40;97.10;;;16.33;87.24;96694.16;5031891;28;20055;-35
2023/07/21 04:12:01;;;;;;;2.33;1.50;;;16.50;97.30;;;16.38;86.17;96686.72;5031701;28;20026;-35
2023/07/21 04:14:27;;;;;;;2.67;1.63;;;16.50;97.10;;;16.44;85.55;96684.53;5029002;28;20160;-35
2023/07/21 04:16:54;;;;;;;3.30;1.70;;;16.60;97.00;;;16.49;84.01;96685.06;5025732;28;21482;-35
2023/07/21 04:19:20;;;;;;;2.13;1.27;;;16.60;96.70;;;16.53;83.00;96684.75;5021663;28;20032;-35
2023/07/21 04:21:47;;;;;;;1.95;1.30;;;16.60;96.50;;;16.59;82.90;96688.78;5024422;28;20064;-35
2023/07/21 04:24:13;;;;;;;2.10;1.27;;;16.70;96.60;;;16.66;85.65;96702.50;5018409;28;20040;-35
2023/07/21 04:26:39;;;;;;;1.83;1.30;;;16.80;97.10;;;16.54;86.02;96675.78;5030032;28;20129;-35
2023/07/21 04:29:06;;;;;;;1.73;1.40;;;16.70;97.20;;;16.63;85.29;96690.25;5019538;28;20033;-35
2023/07/21 04:31:32;;;;;;;4.03;1.40;;;16.80;97.10;;;16.51;85.15;96669.84;5031027;28;20422;-35
2023/07/21 04:33:58;;;;;;;2.05;1.45;;;16.70;97.00;;;16.55;83.83;96696.13;5025959;28;20041;-35
2023/07/21 04:36:24;;;;;;;2.45;1.80;;;16.70;96.80;;;16.48;82.70;96697.53;5028140;28;20417;-35
2023/07/21 04:38:50;;;;;;;2.85;1.52;;;16.60;96.50;;;16.46;84.19;96695.94;5026761;28;20034;-35
2023/07/21 04:41:16;;;;;;;2.97;1.33;;;16.60;96.90;;;16.47;85.32;96703.81;5024611;28;20528;-35
2023/07/21 04:43:43;;;;;;;3.47;1.83;;;16.60;97.10;;;16.50;84.92;96716.06;5023295;28;20272;-35
2023/07/21 04:46:10;;;;;;;2.83;1.77;;;16.60;97.10;;;16.55;84.78;96705.94;5021429;28;20021;-37
2023/07/21 04:48:36;;;;;;;3.97;1.92;;;16.70;97.20;;;16.59;83.77;96716.22;5020199;28;20527;-37
2023/07/21 04:51:03;;;;;;;2.13;1.40;;;16.70;97.00;;;16.64;81.95;96715.06;5021173;28;20037;-38
2023/07/21 04:53:30;;;;;;;2.22;1.50;;;16.70;96.60;;;16.68;80.22;96708.56;5030940;28;20106;-37
2023/07/21 04:55:57;;;;;;;4.47;1.50;;;16.80;96.40;;;16.72;79.31;96708.19;5029997;28;20115;-38
2023/07/21 04:58:23;;;;;;;3.75;1.85;;;16.80;96.00;;;16.78;79.42;96704.28;5032408;28;20500;-37
2023/07/21 05:00:48;;;;;;;3.00;1.63;;;16.90;96.10;;;16.84;78.78;96706.50;5032159;28;20044;-38
2023/07/21 05:03:14;;;;;;;4.57;1.73;;;17.00;96.10;;;16.91;77.26;96709.56;5023464;28;20386;-36
2023/07/21 05:05:40;;;;;;;2.50;1.45;;;17.00;95.80;;;16.96;76.14;96710.09;5027705;28;20123;-37
2023/07/21 05:08:06;;;;;;;2.65;1.52;;;17.10;95.50;;;17.02;76.38;96714.09;5019392;28;20029;-38
2023/07/21 05:10:32;;;;;;;1.80;1.55;;;17.10;95.50;;;17.07;77.25;96719.94;5025299;28;20033;-37
2023/07/21 05:12:59;;;;;;;2.92;1.75;;;17.20;95.70;;;17.12;78.66;96712.44;5024989;28;20060;-38
2023/07/21 05:15:26;;;;;;;2.03;1.48;;;17.30;96.10;;;17.19;76.48;96716.34;5021958;28;21307;-37
2023/07/21 05:17:51;;;;;;;2.75;1.50;;;17.30;95.60;;;17.24;75.26;96714.19;5024452;28;20209;-37
2023/07/21 05:20:19;;;;;;;2.13;1.40;;;17.40;95.30;;;17.32;75.15;96713.66;5023790;28;20492;-37
2023/07/21 05:22:46;;;;;;;2.30;1.60;;;17.40;95.30;;;17.35;75.94;96697.41;5025465;28;20030;-37
2023/07/21 05:25:16;;;;;;;3.35;1.83;;;17.50;95.50;;;17.52;78.95;96712.13;5026544;28;20041;-38
2023/07/21 05:27:42;;;;;;;2.03;1.60;;;17.60;96.20;;;17.62;81.52;96706.94;5027732;28;20028;-37
2023/07/21 05:30:11;;;;;;;2.83;1.60;;;17.70;96.80;;;17.72;83.02;96710.59;5020931;28;20099;-38
2023/07/21 05:32:39;;;;;;;3.58;1.80;;;17.80;97.20;;;17.85;82.89;96706.03;5026126;28;20033;-38
2023/07/21 05:35:07;;;;;;;3.17;1.60;;;17.90;97.20;;;17.98;81.70;96703.31;5025034;28;20448;-38
2023/07/21 05:37:33;;;;;;;1.40;1.20;;;18.10;97.00;;;18.15;80.27;96698.44;5029923;28;20070;-37
2023/07/21 05:39:58;;;;;;;3.00;1.50;;;18.20;96.70;;;18.22;78.44;96700.50;5026603;28;20033;-38
2023/07/21 05:42:24;;;;;;;2.80;1.25;;;18.30;96.30;;;18.30;76.78;96699.91;5026967;28;20041;-38
2023/07/21 05:44:50;;;;;;;2.70;1.60;;;18.30;95.90;;;18.37;76.30;96698.44;5031186;28;20230;-37
2023/07/21 05:47:15;;;;;;;3.55;1.42;;;18.50;95.90;;;18.43;75.10;96689.97;5025121;28;20063;-38
2023/07/21 05:49:41;;;;;;;2.80;1.40;;;18.50;95.60;;;18.64;73.94;96691.84;5029667;28;20037;-37
2023/07/21 05:54:40;;;;;;;2.45;1.50;;;19.00;95.20;;;19.25;69.65;96699.38;5035324;28;20045;-37
2023/07/21 05:57:06;;;;;;;2.08;1.58;;;19.20;94.60;;;19.55;68.43;96697.78;5028239;28;20028;-37
2023/07/21 05:59:32;;;;;;;3.00;1.50;;;19.50;94.20;;;19.79;68.14;96698.41;5033557;28;20128;-39
2023/07/21 06:02:01;;;;;;;2.38;1.55;;;19.80;94.20;;;20.01;68.39;96700.09;5030850;28;20043;-38
2023/07/21 06:04:27;;;;;;;2.92;1.80;;;20.00;94.10;;;20.19;65.12;96691.44;5033878;28;20175;-37
2023/07/21 06:06:56;;;;;;;2.95;1.60;;;20.20;93.60;;;20.32;62.57;96697.41;5034600;28;20040;-38
2023/07/21 06:09:22;;;;;;;2.40;1.48;;;20.30;92.70;;;20.54;61.58;96703.56;5029697;28;20036;-38
2023/07/21 06:11:48;;;;;;;2.92;1.60;;;20.50;92.50;;;20.72;59.38;96701.94;5031186;28;20083;-37
2023/07/21 06:14:14;;;;;;;2.25;1.30;;;20.70;92.00;;;20.86;54.82;96700.72;5019495;28;20083;-37
2023/07/21 06:16:39;;;;;;;3.97;1.75;;;20.80;90.80;;;20.85;56.36;96679.41;5030649;28;20508;-37
2023/07/21 06:19:05;;;;;;;2.92;1.40;;;21.00;90.70;;;21.08;57.03;96704.97;5031789;28;20111;-38
2023/07/21 06:21:31;;;;;;;4.63;1.80;;;21.10;90.90;;;21.15;55.02;96708.78;5033788;28;20431;-39
2023/07/21 06:23:56;;;;;;;2.65;1.80;;;21.20;90.40;;;21.30;53.84;96703.00;5032510;28;20067;-39
2023/07/21 06:26:22;;;;;;;3.40;1.60;;;21.30;90.10;;;21.42;53.58;96714.47;5030838;28;20499;-39
2023/07/21 06:28:48;;;;;;;2.15;1.60;;;21.40;90.00;;;21.56;52.85;96702.50;5027976;28;20139;-38
2023/07/21 06:31:14;;;;;;;4.88;1.85;;;21.50;89.10;;;21.61;52.17;96708.28;5030250;28;20075;-38
2023/07/21 06:33:40;;;;;;;4.32;1.50;;;21.60;88.70;;;21.67;53.55;96710.38;5029961;28;20041;-39
2023/07/21 06:36:06;;;;;;;2.20;1.45;;;21.70;89.30;;;21.75;53.89;96707.84;5032522;28;20028;-39
2023/07/21 06:38:31;;;;;;;2.28;1.85;;;21.70;89.50;;;21.86;52.68;96713.06;5035625;28;20517;-38
2023/07/21 06:40:57;;;;;;;2.58;1.33;;;21.80;89.30;;;22.07;51.64;96710.19;5035058;28;20082;-38
2023/07/21 06:43:24;;;;;;;3.60;1.70;;;22.00;87.80;;;22.27;45.53;96712.81;5034038;28;20083;-38
2023/07/21 06:45:49;;;;;;;2.10;1.30;;;22.20;83.00;;;22.34;44.49;96713.94;5027638;28;20033;-38
2023/07/21 06:48:15;;;;;;;2.35;1.55;;;22.30;81.20;;;22.20;44.30;96717.06;5030060;28;20214;-40
2023/07/21 06:50:41;;;;;;;3.50;1.20;;;22.20;78.50;;;22.11;50.17;96713.44;5039187;28;20592;-37
2023/07/21 06:53:07;;;;;;;1.88;1.50;;;22.10;83.10;;;21.99;52.26;96710.06;5035000;28;20029;-38
2023/07/21 06:55:34;;;;;;;3.83;1.50;;;22.00;87.80;;;21.76;58.50;96720.25;5039290;28;20031;-39
2023/07/21 06:57:59;;;;;;;2.42;1.45;;;21.70;91.10;;;21.68;58.00;96710.25;5040693;28;20075;-38
2023/07/21 07:00:25;;;;;;;2.40;1.50;;;21.60;91.00;;;21.80;56.76;96708.25;5039140;28;20400;-37
2023/07/21 07:02:51;;;;;;;3.03;1.70;;;21.70;90.70;;;21.91;55.39;96696.50;5041114;28;20061;-38
2023/07/21 07:05:17;;;;;;;2.75;1.65;;;21.90;90.00;;;22.13;55.83;96711.44;5035118;28;20048;-38
2023/07/21 07:07:43;;;;;;;1.95;1.30;;;22.00;90.30;;;22.24;51.48;96713.09;5040797;28;20481;-38
2023/07/21 07:10:10;;;;;;;3.78;1.75;;;22.20;87.60;;;22.30;52.05;96716.06;5039384;28;20048;-38
2023/07/21 07:12:37;;;;;;;2.90;1.30;;;22.30;86.70;;;22.29;49.41;96721.63;5034659;28;20495;-38
2023/07/21 07:15:04;;;;;;;5.60;1.77;;;22.20;84.90;;;22.08;50.01;96713.72;5038216;28;20033;-39
2023/07/21 07:17:29;;;;;;;3.15;1.80;;;22.10;85.20;;;22.07;49.31;96738.84;5041995;28;20056;-37
2023/07/21 07:19:56;;;;;;;2.80;1.58;;;22.10;85.10;;;22.00;49.23;96737.75;5044164;28;20044;-40
2023/07/21 07:22:22;;;;;;;4.63;1.33;;;22.00;85.00;;;22.08;49.03;96735.19;5038370;28;20037;-38
2023/07/21 07:24:48;;;;;;;2.55;1.58;;;22.10;84.10;;;22.33;47.62;96732.91;5043305;28;20075;-38
2023/07/21 07:27:13;;;;;;;2.60;1.40;;;22.20;83.30;;;22.59;48.32;96735.75;5041263;28;20036;-38
2023/07/21 07:29:40;;;;;;;5.28;1.55;;;22.50;84.40;;;22.82;46.46;96745.13;5039580;28;20041;-40
2023/07/21 07:32:07;;;;;;;4.55;1.95;;;22.70;82.10;;;22.94;46.09;96737.72;5041201;28;20108;-40
2023/07/21 07:34:32;;;;;;;6.47;1.90;;;22.80;81.50;;;23.04;48.13;96734.97;5040940;28;20435;-38
2023/07/21 07:36:59;;;;;;;6.75;1.60;;;23.00;83.80;;;23.24;47.00;96730.34;5041312;28;20572;-38
2023/07/21 07:39:24;;;;;;;6.43;1.45;;;23.20;82.50;;;23.37;45.48;96736.19;5039102;28;20037;-38
2023/07/21 07:41:51;;;;;;;3.63;1.77;;;23.30;80.30;;;23.36;43.75;96736.34;5041353;28;20444;-38
2023/07/21 07:44:18;;;;;;;3.67;1.60;;;23.40;76.90;;;23.40;42.99;96743.09;5034117;28;20988;-38
2023/07/21 07:46:43;;;;;;;3.25;1.88;;;23.40;76.10;;;23.37;43.83;96738.06;5039381;28;20299;-39
2023/07/21 07:49:09;;;;;;;3.15;1.48;;;23.50;77.30;;;23.24;45.54;96739.25;5041304;28;20503;-37
2023/07/21 07:51:38;;;;;;;2.80;1.52;;;23.30;79.30;;;23.13;45.37;96741.31;5037954;28;20750;-40
2023/07/21 07:54:05;;;;;;;2.20;1.42;;;23.30;79.20;;;22.96;43.95;96735.72;5035802;28;20032;-38
2023/07/21 07:56:31;;;;;;;2.20;1.40;;;23.10;76.40;;;22.86;44.25;96741.16;5037422;28;20021;-38
2023/07/21 07:58:57;;;;;;;2.60;1.30;;;22.90;77.70;;;22.80;45.78;96747.13;5042486;28;20048;-40
2023/07/21 08:01:23;;;;;;;5.93;1.75;;;22.80;78.80;;;22.58;50.59;96755.59;5029544;28;20669;-39
2023/07/21 08:03:52;;;;;;;2.17;1.38;;;22.60;84.90;;;22.57;49.20;96756.56;5030051;28;20960;-41
2023/07/21 08:06:17;;;;;;;5.18;1.90;;;22.50;84.00;;;22.70;49.13;96757.06;5027998;28;21480;-39
2023/07/21 08:08:43;;;;;;;2.70;1.45;;;22.70;84.30;;;22.73;46.86;96756.78;5033337;28;20037;-38
2023/07/21 08:11:09;;;;;;;4.78;1.60;;;22.70;81.50;;;22.85;46.36;96755.59;5036141;28;20054;-40
2023/07/21 08:13:36;;;;;;;2.40;1.65;;;22.80;80.50;;;22.79;46.38;96756.19;5033104;28;20033;-41
2023/07/21 08:16:09;;;;;;;2.72;1.58;;;22.90;81.60;;;22.96;46.00;96756.38;5032107;28;20457;-38
2023/07/21 08:18:35;;;;;;;2.22;1.42;;;22.90;80.30;;;23.12;44.83;96750.41;5032286;28;20033;-38
2023/07/21 08:21:24;;;;;;;5.03;1.58;;;23.00;78.80;;;23.22;44.71;96748.47;5030826;28;20020;-40
2023/07/21 08:23:51;;;;;;;2.25;1.48;;;23.10;78.60;;;23.19;43.50;96738.03;5035032;28;20032;-39
2023/07/21 08:26:18;;;;;;;4.65;1.50;;;23.20;76.70;;;23.17;42.65;96743.56;5034762;28;20036;-38
2023/07/21 08:28:44;;;;;;;2.38;1.52;;;23.20;75.40;;;23.42;42.10;96750.03;5025747;28;20037;-40
2023/07/21 08:31:09;;;;;;;2.13;1.27;;;23.40;75.80;;;23.55;41.10;96754.19;5029003;28;20098;-38
2023/07/21 08:33:36;;;;;;;2.22;1.27;;;23.50;73.50;;;23.58;42.44;96751.19;5029101;28;20091;-40
2023/07/21 08:36:02;;;;;;;1.45;1.17;;;23.50;74.70;;;23.60;42.27;96749.22;5028629;28;20051;-38
2023/07/21 08:38:28;;;;;;;2.72;1.30;;;23.50;75.40;;;23.85;41.94;96757.50;5027856;28;20033;-38
2023/07/21 08:41:06;;;;;;;4.65;1.40;;;23.70;75.00;;;24.11;45.43;96753.00;5025840;28;20037;-38
2023/07/21 08:43:32;;;;;;;3.58;1.52;;;24.00;77.60;;;24.45;40.26;96752.22;5019489;28;20057;-38
2023/07/21 08:46:03;;;;;;;2.22;1.35;;;24.30;73.90;;;24.52;40.78;96749.75;5025456;28;20029;-39
2023/07/21 08:48:30;;;;;;;2.20;1.30;;;24.40;72.50;;;24.54;38.59;96753.16;5026704;28;20025;-39
2023/07/21 08:50:57;;;;;;;3.22;1.50;;;24.50;71.40;;;24.35;38.95;96754.19;5028600;28;20279;-38
2023/07/21 08:53:24;;;;;;;6.97;1.40;;;24.30;69.80;;;24.19;40.36;96745.00;5032478;28;20116;-40
2023/07/21 08:55:55;;;;;;;2.47;1.40;;;24.10;71.90;;;23.92;40.31;96753.19;5027930;28;20052;-39
2023/07/21 08:58:23;;;;;;;2.15;1.30;;;24.00;71.60;;;23.80;39.93;96756.13;5028010;28;20029;-39
2023/07/21 09:00:51;;;;;;;4.53;2.20;;;23.80;70.90;;;23.79;40.24;96754.41;5035559;28;20482;-39
2023/07/21 09:03:29;;;;;;;18.50;8.07;;;23.70;71.70;;;23.79;40.79;96751.72;5031949;28;20412;-39
2023/07/21 09:05:57;;;;;;;3.70;2.10;;;23.70;72.40;;;23.81;41.10;96759.66;5034366;28;20104;-39
2023/07/21 09:08:29;;;;;;;2.80;1.48;;;23.70;73.20;;;23.74;40.57;96761.25;5034532;28;20606;-39
2023/07/21 09:11:00;;;;;;;1.75;1.50;;;23.70;71.90;;;23.88;40.48;96757.22;5029678;28;20405;-38
2023/07/21 09:13:26;;;;;;;2.70;1.42;;;23.70;71.30;;;23.95;40.65;96760.97;5028204;28;20306;-39
2023/07/21 09:15:58;;;;;;;5.53;1.30;;;23.80;72.00;;;23.86;39.49;96756.53;5030856;28;20134;-39
2023/07/21 09:18:26;;;;;;;3.45;1.45;;;23.80;69.30;;;23.73;37.90;96755.03;5029408;28;20058;-39
2023/07/21 09:20:52;;;;;;;1.23;1.00;;;23.70;68.00;;;23.71;37.92;96754.34;5031721;28;20493;-38
2023/07/21 09:23:19;;;;;;;1.50;1.15;;;23.70;67.20;;;23.59;38.94;96752.88;5034167;28;20039;-38
2023/07/21 09:25:54;;;;;;;2.00;1.20;;;23.60;67.20;;;23.44;39.31;96755.28;5035234;28;20025;-40
2023/07/21 09:28:44;;;;;;;2.92;1.15;;;23.50;68.60;;;23.46;37.40;96755.13;5032540;28;20389;-39
2023/07/21 09:31:12;;;;;;;1.55;1.08;;;23.50;66.50;;;23.66;38.52;96753.13;5031216;28;20552;-40
2023/07/21 09:33:42;;;;;;;3.10;1.30;;;23.70;68.20;;;23.92;36.96;96754.06;5034156;28;20032;-39
2023/07/21 09:36:10;;;;;;;1.48;1.05;;;24.00;66.90;;;24.19;38.17;96749.53;5033943;28;20098;-38
2023/07/21 09:38:38;;;;;;;2.90;1.30;;;24.30;68.20;;;24.50;38.29;96758.00;5030990;28;20048;-40
2023/07/21 09:41:07;;;;;;;4.05;1.30;;;24.60;68.30;;;24.92;38.01;96750.97;5031394;28;20032;-39
2023/07/21 09:43:33;;;;;;;3.42;1.67;;;24.90;65.70;;;25.08;35.43;96755.59;5025888;28;20051;-40
2023/07/21 09:46:07;;;;;;;1.23;1.10;;;25.10;63.50;;;24.94;35.27;96755.22;5027621;28;20028;-38
2023/07/21 09:48:35;;;;;;;1.55;1.20;;;25.00;63.10;;;24.69;37.81;96742.59;5031728;28;20032;-41
2023/07/21 09:51:10;;;;;;;2.40;1.60;;;24.80;65.90;;;24.35;38.02;96749.66;5028951;28;20060;-39
2023/07/21 09:53:41;;;;;;;3.60;1.48;;;24.50;67.30;;;24.41;38.11;96753.56;5030338;28;20029;-40
2023/07/21 09:56:08;;;;;;;2.03;1.10;;;24.50;67.20;;;24.52;37.49;96739.81;5023185;28;20492;-39
2023/07/21 09:58:46;;;;;;;1.65;1.40;;;24.60;66.40;;;24.77;37.07;96742.66;5029002;28;20102;-40
2023/07/21 10:01:12;;;;;;;1.45;1.30;;;24.70;66.50;;;24.78;37.34;96733.53;5024940;28;20029;-39
2023/07/21 10:03:38;;;;;;;2.50;1.23;;;24.80;66.10;;;24.87;37.02;96734.44;5023563;28;20033;-40
2023/07/21 10:06:06;;;;;;;3.15;1.30;;;24.70;66.10;;;24.80;38.17;96720.78;5020295;28;20032;-39
2023/07/21 10:08:36;;;;;;;4.38;1.20;;;24.70;68.30;;;24.85;38.05;96722.97;5018727;28;20045;-40
2023/07/21 10:11:03;;;;;;;2.03;1.20;;;24.70;67.70;;;24.87;37.54;96724.50;5030270;28;20393;-39
2023/07/21 10:13:32;;;;;;;2.55;1.38;;;24.80;66.70;;;24.77;37.60;96710.31;5028462;28;20110;-41
2023/07/21 10:16:06;;;;;;;3.72;1.38;;;24.70;66.80;;;24.69;36.12;96716.50;5029611;28;20397;-40
2023/07/21 10:18:32;;;;;;;3.70;1.30;;;24.60;63.70;;;24.54;36.07;96718.13;5029828;28;20045;-40
2023/07/21 10:20:59;;;;;;;2.42;1.40;;;24.50;64.80;;;24.24;36.17;96716.72;5020871;28;20037;-39
2023/07/21 10:23:25;;;;;;;2.05;1.17;;;24.30;63.60;;;24.13;37.16;96718.69;5030297;28;20107;-39